Carrasco Bonito, Brazil
Current Conditions -  °F | °C
As of 9:00 AM on Thursday 30 Oct 2014 (Local Time) from SBIZ Reporting Station
Scattered Clouds Scattered Clouds  
Wind Chill: 84°   Ceiling: Unl
Heat Index: 91°   Visibility: 6mi
Dew Point: 73°   Wind: 12mph
Humidity: 70%   Direction: 70°ENE
Pressure: 29.85"   Gusts: NA
Location:  5.32°S, 48.03°W
Report Text: SBIZ 301200Z 07010KT 9999 SCT017 29/23 Q1011
Loading
Personal Weather Stations






























Interactive Weather Map
Tropical Storm Tracking
New forecast layout! Learn more

10-Day Weather Forecast

Advertisements
Track Severe Weather on mobile